Medellin, Colombia

6:47 AM COT on October 24, 2014 (GMT -0500)
Olaya Herrera | Change Station
CLOSE
Current Station
Airport
Location: Medellin,
Elevation: 4918 ft
Nearby Weather Stations

Elev 4918 ft 6.22 °N, 75.59 °W | Updated 47 minutes ago

Overcast
Overcast
66 °F
Feels Like 66 °F
N
0
Wind Variable Wind from North

Today
High -- | Low -- °F
--% Chance of Precip.
Yesterday
High -- | Low -- °F
Precip. -- in
5:48 AM 5:44 PM
New Moon, 0% visible
Pressure 30.16 in
Visibility 6.2 miles
Clouds Scattered Clouds 1200 ft
Overcast 7000 ft
Dew Point 63 °F
Humidity 88%
Rainfall 0.00 in
Snow Depth Not available.
UV 0 out of 12
Pollen Not available.
Air Quality Not available.
Flu Activity Not available.
METAR SKMD 241100Z 00000KT 9999 8000S SCT012 OVC070 19/17 A3016 RMK HZ

More Conditions Fewer Conditions

Pressure 30.16 in
Visibility 6.2 miles
Clouds Scattered Clouds 1200 ft
Overcast 7000 ft
Dew Point 63 °F
Humidity 88%
Rainfall 0.00 in
Snow Depth Not available.
UV 0 out of 12
Pollen Not available.
Air Quality Not available.
Flu Activity Not available.
METAR SKMD 241100Z 00000KT 9999 8000S SCT012 OVC070 19/17 A3016 RMK HZ

More Conditions Fewer Conditions

10-Day Weather Forecast

Almanac

Astronomy

Oct. 24, 2014 Rise Set
Actual Time 5:48 AM COT 5:44 PM COT
Civil Twilight 5:27 AM COT 6:05 PM COT
Nautical Twilight 5:02 AM COT 6:30 PM COT
Astronomical Twilight 4:38 AM COT 6:55 PM COT
Moon 6:20 AM COT 6:31 PM COT
Length of Visible Light 12h 38m
Length of Day
11h 56m
Tomorrow will be 0m 18s shorter.
New Moon, 0% of the Moon is Illuminated
Today
New Moon
Oct 30
First Quarter
Nov 6
Full
Nov 14
Last Quarter
Nov 22
New

Yesterday's Extremes

Country Highs Country Lows

Community

WunderPhotos

Upload Photos

1,764,526 photos uploaded!

Nearby

Snow Depth

Not available.

Earthquake Activity

City Distance Mag. Time & Date
No recent earthquake activity has been reported nearby.
Minimum magnitude displayed is 2.5.

Coastal Water Temperatures

Place Temperature
No Stations Reporting

Nearby Weather Stations